createdAt,value
2022-11-13T00:00:27.396Z,5.62
2022-11-13T00:01:29.834Z,7.77
2022-11-13T00:02:32.250Z,7.26
2022-11-13T00:03:34.671Z,7.73
2022-11-13T00:04:37.133Z,6.27
2022-11-13T00:05:39.500Z,6.43
2022-11-13T00:06:42.194Z,5.01
2022-11-13T00:07:44.648Z,4.73
2022-11-13T00:08:47.105Z,6.33
2022-11-13T00:09:49.559Z,6.93
2022-11-13T00:10:52.218Z,4.73
2022-11-13T00:11:54.576Z,8.35
2022-11-13T00:12:57.071Z,4.72
2022-11-13T00:13:59.423Z,4.50
2022-11-13T00:15:01.789Z,6.80
2022-11-13T00:16:04.665Z,5.19
2022-11-13T00:17:07.127Z,6.66
2022-11-13T00:18:09.634Z,7.40
2022-11-13T00:19:12.085Z,6.51
2022-11-13T00:20:14.661Z,4.00
2022-11-13T00:21:17.057Z,6.15
2022-11-13T00:22:19.627Z,5.09
2022-11-13T00:23:22.081Z,5.91
2022-11-13T00:24:24.534Z,7.50
2022-11-13T00:25:26.912Z,7.77
2022-11-13T00:26:29.472Z,4.44
2022-11-13T00:27:31.928Z,5.13
2022-11-13T00:28:34.359Z,4.31
2022-11-13T00:29:36.712Z,3.93
2022-11-13T00:30:39.265Z,4.57
2022-11-13T00:31:41.630Z,5.15
2022-11-13T00:32:44.087Z,9.71
2022-11-13T00:34:09.074Z,7.45
2022-11-13T00:34:50.868Z,5.84
2022-11-13T00:35:53.229Z,4.43
2022-11-13T00:36:55.889Z,5.47
2022-11-13T00:37:58.250Z,3.90
2022-11-13T00:39:00.763Z,4.38
2022-11-13T00:40:03.228Z,8.93
2022-11-13T00:41:05.685Z,5.61
2022-11-13T00:42:08.038Z,5.64
2022-11-13T00:43:10.393Z,5.91
2022-11-13T00:44:12.784Z,5.58
2022-11-13T00:45:15.169Z,4.84
2022-11-13T00:46:17.925Z,5.08
2022-11-13T00:47:20.293Z,5.29
2022-11-13T00:48:22.646Z,4.91
2022-11-13T00:49:25.157Z,7.80
2022-11-13T00:50:27.829Z,5.43
2022-11-13T00:51:30.188Z,5.29
2022-11-13T00:52:32.550Z,7.65
2022-11-13T00:53:34.911Z,7.56
2022-11-13T00:54:37.301Z,5.51
2022-11-13T00:55:39.656Z,7.09
2022-11-13T00:56:42.616Z,5.87
2022-11-13T00:57:44.972Z,6.70
2022-11-13T00:58:47.331Z,7.11
2022-11-13T00:59:49.820Z,4.41
2022-11-13T01:00:52.378Z,5.90
2022-11-13T01:01:54.880Z,6.14
2022-11-13T01:02:57.401Z,8.41
2022-11-13T01:03:59.865Z,4.32
2022-11-13T01:05:02.586Z,3.34
2022-11-13T01:06:05.363Z,5.08
2022-11-13T01:07:07.872Z,4.39
2022-11-13T01:08:10.396Z,5.07
2022-11-13T01:09:12.759Z,5.57
2022-11-13T01:10:16.761Z,5.11
2022-11-13T01:11:19.218Z,5.91
2022-11-13T01:12:21.683Z,5.96
2022-11-13T01:13:24.144Z,6.23
2022-11-13T01:14:26.506Z,4.82
2022-11-13T01:15:28.991Z,7.31
2022-11-13T01:16:31.448Z,5.12
2022-11-13T01:17:33.908Z,8.99
2022-11-13T01:18:36.265Z,5.95
2022-11-13T01:19:38.628Z,7.40
2022-11-13T01:20:41.217Z,5.05
2022-11-13T01:21:43.673Z,5.70
2022-11-13T01:22:46.142Z,4.50
2022-11-13T01:23:48.500Z,5.97
2022-11-13T01:24:50.860Z,4.89
2022-11-13T01:25:53.268Z,8.89
2022-11-13T01:26:55.742Z,7.19
2022-11-13T01:27:58.198Z,4.85
2022-11-13T01:29:00.559Z,3.56
2022-11-13T01:30:03.132Z,5.77
2022-11-13T01:31:05.630Z,4.67
2022-11-13T01:32:08.104Z,5.83
2022-11-13T01:33:10.572Z,4.96
2022-11-13T01:34:13.032Z,4.98
2022-11-13T01:35:15.497Z,3.38
2022-11-13T01:36:18.209Z,4.31
2022-11-13T01:37:20.591Z,3.77
2022-11-13T01:38:23.071Z,4.91
2022-11-13T01:39:25.534Z,4.38
2022-11-13T01:40:28.121Z,4.59
2022-11-13T01:41:30.628Z,5.36
2022-11-13T01:42:33.096Z,5.05
2022-11-13T01:43:35.463Z,4.95
2022-11-13T01:44:37.823Z,4.23
2022-11-13T01:45:40.185Z,3.31
2022-11-13T01:46:42.770Z,2.91
2022-11-13T01:47:45.135Z,3.83
2022-11-13T01:48:47.590Z,4.18
2022-11-13T01:49:49.951Z,3.95
2022-11-13T01:50:52.513Z,3.61
2022-11-13T01:51:55.028Z,3.87
2022-11-13T01:52:57.504Z,3.67
2022-11-13T01:53:59.969Z,4.24
2022-11-13T01:55:02.436Z,3.51
2022-11-13T01:56:05.207Z,6.15
2022-11-13T01:57:07.716Z,3.63
2022-11-13T01:58:10.183Z,3.98
2022-11-13T01:59:12.634Z,2.42
2022-11-13T02:00:15.604Z,3.27
2022-11-13T02:01:18.115Z,4.01
2022-11-13T02:02:20.681Z,6.91
2022-11-13T02:03:23.138Z,4.62
2022-11-13T02:04:25.598Z,3.75
2022-11-13T02:05:28.212Z,2.79
2022-11-13T02:06:30.978Z,2.32
2022-11-13T02:07:33.372Z,5.97
2022-11-13T02:08:35.842Z,6.37
2022-11-13T02:09:38.206Z,3.67
2022-11-13T02:10:40.771Z,5.15
2022-11-13T02:11:43.230Z,3.03
2022-11-13T02:12:45.648Z,4.73
2022-11-13T02:13:48.008Z,3.25
2022-11-13T02:14:50.698Z,3.23
2022-11-13T02:15:53.062Z,3.07
2022-11-13T02:16:55.826Z,3.46
2022-11-13T02:17:58.226Z,3.20
2022-11-13T02:19:00.586Z,2.97
2022-11-13T02:20:03.247Z,2.81
2022-11-13T02:21:05.712Z,2.68
2022-11-13T02:22:08.181Z,2.44
2022-11-13T02:23:10.685Z,4.03
2022-11-13T02:24:13.052Z,3.41
2022-11-13T02:25:15.517Z,3.46
2022-11-13T02:26:18.690Z,3.14
2022-11-13T02:27:21.051Z,2.47
2022-11-13T02:28:23.451Z,3.69
2022-11-13T02:29:25.811Z,4.60
2022-11-13T02:30:28.377Z,3.11
2022-11-13T02:31:30.834Z,2.41
2022-11-13T02:32:33.295Z,2.11
2022-11-13T02:33:35.795Z,2.45
2022-11-13T02:34:38.158Z,4.75
2022-11-13T02:35:40.642Z,4.09
2022-11-13T02:36:43.493Z,2.62
2022-11-13T02:37:45.948Z,3.05
2022-11-13T02:38:48.348Z,1.79
2022-11-13T02:39:50.807Z,2.65
2022-11-13T02:40:53.470Z,4.52
2022-11-13T02:41:55.930Z,4.25
2022-11-13T02:42:58.290Z,4.30
2022-11-13T02:44:01.103Z,2.69
2022-11-13T02:45:03.571Z,2.50
2022-11-13T02:46:06.232Z,3.31
2022-11-13T02:47:08.594Z,3.15
2022-11-13T02:48:11.060Z,4.37
2022-11-13T02:49:13.557Z,5.15
2022-11-13T02:50:16.423Z,4.15
2022-11-13T02:51:18.883Z,4.55
2022-11-13T02:52:21.381Z,3.55
2022-11-13T02:53:23.812Z,3.75
2022-11-13T02:54:26.319Z,3.01
2022-11-13T02:55:28.844Z,3.09
2022-11-13T02:56:31.404Z,3.51
2022-11-13T02:57:33.868Z,2.82
2022-11-13T02:58:36.243Z,2.57
2022-11-13T02:59:38.657Z,3.37
2022-11-13T03:00:41.214Z,3.07
2022-11-13T03:01:43.606Z,3.05
2022-11-13T03:02:46.235Z,6.38
2022-11-13T03:03:57.580Z,2.31
2022-11-13T03:05:57.295Z,2.81
2022-11-13T03:06:59.998Z,1.69
2022-11-13T03:08:02.418Z,2.91
2022-11-13T03:09:04.875Z,2.45
2022-11-13T03:10:07.828Z,3.34
2022-11-13T03:11:10.192Z,2.70
2022-11-13T03:12:12.652Z,2.93
2022-11-13T03:13:15.116Z,1.89
2022-11-13T03:14:18.074Z,2.71
2022-11-13T03:15:20.471Z,2.96
2022-11-13T03:16:23.022Z,2.17
2022-11-13T03:17:25.410Z,2.66
2022-11-13T03:18:28.218Z,3.21
2022-11-13T03:19:31.135Z,2.19
2022-11-13T03:20:33.720Z,3.30
2022-11-13T03:21:36.077Z,2.01
2022-11-13T03:22:38.527Z,2.39
2022-11-13T03:23:40.884Z,2.99
2022-11-13T03:24:43.344Z,2.14
2022-11-13T03:25:45.835Z,2.55
2022-11-13T03:26:48.477Z,3.51
2022-11-13T03:27:50.837Z,2.21
2022-11-13T03:28:53.189Z,1.91
2022-11-13T03:29:55.646Z,1.80
2022-11-13T03:30:58.346Z,2.94
2022-11-13T03:32:00.806Z,2.63
2022-11-13T03:33:03.243Z,2.91
2022-11-13T03:34:05.602Z,3.01
2022-11-13T03:35:07.956Z,3.77
2022-11-13T03:36:10.750Z,4.64
2022-11-13T03:37:13.199Z,2.53
2022-11-13T03:38:15.572Z,1.81
2022-11-13T03:39:18.051Z,1.99
2022-11-13T03:40:20.721Z,4.47
2022-11-13T03:41:23.116Z,2.03
2022-11-13T03:42:25.469Z,3.39
2022-11-13T03:43:27.830Z,5.28
2022-11-13T03:44:30.286Z,3.47
2022-11-13T03:45:32.674Z,2.53
2022-11-13T03:46:35.359Z,2.75
2022-11-13T03:47:37.807Z,3.01
2022-11-13T03:48:40.169Z,2.32
2022-11-13T03:49:42.627Z,2.09
2022-11-13T03:50:45.734Z,1.83
2022-11-13T03:51:48.294Z,2.17
2022-11-13T03:52:50.753Z,2.23
2022-11-13T03:53:53.106Z,2.40
2022-11-13T03:54:55.465Z,2.29
2022-11-13T03:55:57.924Z,2.02
2022-11-13T03:57:00.423Z,5.24
2022-11-13T03:58:02.887Z,2.89
2022-11-13T03:59:05.334Z,4.17
2022-11-13T04:00:08.094Z,2.04
2022-11-13T04:01:10.444Z,1.84
2022-11-13T04:02:12.891Z,1.76
2022-11-13T04:03:15.245Z,1.89
2022-11-13T04:04:17.697Z,1.17
2022-11-13T04:05:22.741Z,1.97
2022-11-13T04:06:24.441Z,2.18
2022-11-13T04:07:26.936Z,1.63
2022-11-13T04:08:29.804Z,2.61
2022-11-13T04:09:32.443Z,1.48
2022-11-13T04:10:35.097Z,2.59
2022-11-13T04:11:37.472Z,1.53
2022-11-13T04:12:40.299Z,1.40
2022-11-13T04:13:42.678Z,3.67
2022-11-13T04:14:45.041Z,2.01
2022-11-13T04:15:47.493Z,0.84
2022-11-13T04:16:50.144Z,3.17
2022-11-13T04:17:52.581Z,2.79
2022-11-13T04:18:54.939Z,2.43
2022-11-13T04:19:57.397Z,3.58
2022-11-13T04:20:59.952Z,2.58
2022-11-13T04:22:02.321Z,2.31
2022-11-13T04:23:04.801Z,1.30
2022-11-13T04:24:07.265Z,1.05
2022-11-13T04:25:09.719Z,1.43
2022-11-13T04:26:12.691Z,2.10
2022-11-13T04:27:15.163Z,3.99
2022-11-13T04:28:17.664Z,2.37
2022-11-13T04:29:20.201Z,2.01
2022-11-13T04:30:22.780Z,1.77
2022-11-13T04:31:25.238Z,2.58
2022-11-13T04:32:27.625Z,2.07
2022-11-13T04:33:30.103Z,2.53
2022-11-13T04:34:32.461Z,1.29
2022-11-13T04:35:34.915Z,1.48
2022-11-13T04:36:37.571Z,1.69
2022-11-13T04:37:39.962Z,2.88
2022-11-13T04:38:42.356Z,1.79
2022-11-13T04:39:44.811Z,1.93
2022-11-13T04:40:47.275Z,2.74
2022-11-13T04:41:55.051Z,3.59
2022-11-13T04:42:54.118Z,3.24
2022-11-13T04:43:56.507Z,2.25
2022-11-13T04:44:58.870Z,2.51
2022-11-13T04:46:01.228Z,2.77
2022-11-13T04:47:03.685Z,1.87
2022-11-13T04:48:06.046Z,2.23
2022-11-13T04:49:08.522Z,3.05
2022-11-13T04:50:11.593Z,1.71
2022-11-13T04:51:14.041Z,1.43
2022-11-13T04:52:16.402Z,3.05
2022-11-13T04:53:18.863Z,2.60
2022-11-13T04:54:27.374Z,1.77
2022-11-13T04:55:25.516Z,2.42
2022-11-13T04:56:28.000Z,2.02
2022-11-13T04:57:30.452Z,1.61
2022-11-13T04:58:32.803Z,2.19
2022-11-13T04:59:35.206Z,1.92
2022-11-13T05:00:37.760Z,1.52
2022-11-13T05:01:40.240Z,2.73
2022-11-13T05:02:42.678Z,1.93
2022-11-13T05:03:45.148Z,2.69
2022-11-13T05:04:47.818Z,4.99
2022-11-13T05:05:50.172Z,3.21
2022-11-13T05:06:52.847Z,2.21
2022-11-13T05:07:55.489Z,1.89
2022-11-13T05:08:57.950Z,2.59
2022-11-13T05:10:00.358Z,2.93
2022-11-13T05:11:02.914Z,2.63
2022-11-13T05:12:05.409Z,2.31
2022-11-13T05:13:07.855Z,2.43
2022-11-13T05:14:10.213Z,4.25
2022-11-13T05:15:12.605Z,3.97
2022-11-13T05:16:15.567Z,2.98
2022-11-13T05:17:18.039Z,1.49
2022-11-13T05:18:20.494Z,1.43
2022-11-13T05:19:22.854Z,1.51
2022-11-13T05:20:25.648Z,6.47
2022-11-13T05:21:28.003Z,1.62
2022-11-13T05:22:30.357Z,2.56
2022-11-13T05:23:32.817Z,1.28
2022-11-13T05:24:35.182Z,2.68
2022-11-13T05:25:37.583Z,1.68
2022-11-13T05:26:40.145Z,2.69
2022-11-13T05:27:42.516Z,3.68
2022-11-13T05:28:44.971Z,2.17
2022-11-13T05:29:47.469Z,5.00
2022-11-13T05:30:50.238Z,2.83
2022-11-13T05:31:52.703Z,2.18
2022-11-13T05:32:55.160Z,2.56
2022-11-13T05:34:01.268Z,2.45
2022-11-13T05:35:01.908Z,0.99
2022-11-13T05:36:04.510Z,5.06
2022-11-13T05:37:06.868Z,2.58
2022-11-13T05:38:09.356Z,3.31
2022-11-13T05:39:11.719Z,3.19
2022-11-13T05:40:14.897Z,1.79
2022-11-13T05:41:17.295Z,2.59
2022-11-13T05:42:19.659Z,1.97
2022-11-13T05:43:22.136Z,4.35
2022-11-13T05:44:24.599Z,4.61
2022-11-13T05:45:26.958Z,3.09
2022-11-13T05:46:29.654Z,1.69
2022-11-13T05:47:32.017Z,2.53
2022-11-13T05:48:34.477Z,1.84
2022-11-13T05:49:36.944Z,2.19
2022-11-13T05:50:39.705Z,6.28
2022-11-13T05:51:42.216Z,1.47
2022-11-13T05:52:44.702Z,3.61
2022-11-13T05:53:47.157Z,2.43
2022-11-13T05:54:49.519Z,1.91
2022-11-13T05:55:51.879Z,1.74
2022-11-13T05:56:54.525Z,2.23
2022-11-13T05:57:56.885Z,2.22
2022-11-13T05:58:59.247Z,2.70
2022-11-13T06:00:01.712Z,3.62
2022-11-13T06:01:04.290Z,3.11
2022-11-13T06:02:06.860Z,9.19
2022-11-13T06:03:09.280Z,2.52
2022-11-13T06:04:11.747Z,10.00
2022-11-13T06:05:14.209Z,1.67
2022-11-13T06:06:16.983Z,5.91
2022-11-13T06:07:19.603Z,2.97
2022-11-13T06:08:22.306Z,2.60
2022-11-13T06:09:24.768Z,2.32
2022-11-13T06:10:27.363Z,1.95
2022-11-13T06:11:29.790Z,3.29
2022-11-13T06:12:32.319Z,2.59
2022-11-13T06:13:34.788Z,3.17
2022-11-13T06:14:37.256Z,1.61
2022-11-13T06:15:39.717Z,3.63
2022-11-13T06:16:42.379Z,2.01
2022-11-13T06:17:44.880Z,3.99
2022-11-13T06:18:47.259Z,3.09
2022-11-13T06:19:49.712Z,5.65
2022-11-13T06:20:52.176Z,2.78
2022-11-13T06:21:54.542Z,2.77
2022-11-13T06:22:57.039Z,4.11
2022-11-13T06:23:59.407Z,2.19
2022-11-13T06:25:01.867Z,2.77
2022-11-13T06:26:04.327Z,2.22
2022-11-13T06:27:06.688Z,2.57
2022-11-13T06:28:09.098Z,3.13
2022-11-13T06:29:11.584Z,7.81
2022-11-13T06:30:14.365Z,4.35
2022-11-13T06:31:16.827Z,8.27
2022-11-13T06:32:19.286Z,5.49
2022-11-13T06:33:21.792Z,6.07
2022-11-13T06:34:24.157Z,2.39
2022-11-13T06:35:26.611Z,1.90
2022-11-13T06:36:29.476Z,2.91
2022-11-13T06:37:34.701Z,3.26
2022-11-13T06:38:36.210Z,3.99
2022-11-13T06:39:39.020Z,2.99
2022-11-13T06:40:41.684Z,6.06
2022-11-13T06:41:44.143Z,3.94
2022-11-13T06:42:46.606Z,5.89
2022-11-13T06:43:49.100Z,2.52
2022-11-13T06:44:51.533Z,2.47
2022-11-13T06:45:53.966Z,1.91
2022-11-13T06:46:56.739Z,4.63
2022-11-13T06:47:59.189Z,2.35
2022-11-13T06:49:01.695Z,3.74
2022-11-13T06:50:04.484Z,2.87
2022-11-13T06:51:06.844Z,2.13
2022-11-13T06:52:09.311Z,3.38
2022-11-13T06:53:11.776Z,3.01
2022-11-13T06:54:14.272Z,7.37
2022-11-13T06:55:16.753Z,2.62
2022-11-13T06:56:19.520Z,6.90
2022-11-13T06:57:21.986Z,6.26
2022-11-13T06:58:24.447Z,5.92
2022-11-13T06:59:26.868Z,2.44
2022-11-13T07:00:35.273Z,5.73
2022-11-13T07:01:34.017Z,3.88
2022-11-13T07:02:36.885Z,3.26
2022-11-13T07:03:39.474Z,3.38
2022-11-13T07:04:42.175Z,3.77
2022-11-13T07:05:44.640Z,3.79
2022-11-13T07:06:47.580Z,2.46
2022-11-13T07:07:50.165Z,6.00
2022-11-13T07:08:52.625Z,2.97
2022-11-13T07:09:55.229Z,2.21
2022-11-13T07:10:57.792Z,3.63
2022-11-13T07:12:00.256Z,3.63
2022-11-13T07:13:02.619Z,5.08
2022-11-13T07:14:04.976Z,1.90
2022-11-13T07:15:07.388Z,2.12
2022-11-13T07:16:17.057Z,2.22
2022-11-13T07:17:14.908Z,2.60
2022-11-13T07:18:22.884Z,3.35
2022-11-13T07:19:21.638Z,5.02
2022-11-13T07:20:24.056Z,1.66
2022-11-13T07:21:26.544Z,3.43
2022-11-13T07:22:29.907Z,2.30
2022-11-13T07:23:32.370Z,2.43
2022-11-13T07:24:34.837Z,2.08
2022-11-13T07:25:37.315Z,2.18
2022-11-13T07:26:39.992Z,6.27
2022-11-13T07:27:42.560Z,4.23
2022-11-13T07:28:44.926Z,2.45
2022-11-13T07:29:47.384Z,2.15
2022-11-13T07:30:50.076Z,3.83
2022-11-13T07:31:52.483Z,2.39
2022-11-13T07:32:54.912Z,4.17
2022-11-13T07:33:57.395Z,3.12
2022-11-13T07:34:59.992Z,2.13
2022-11-13T07:36:02.561Z,2.33
2022-11-13T07:37:05.020Z,3.58
2022-11-13T07:38:07.664Z,8.60
2022-11-13T07:39:10.151Z,4.88
2022-11-13T07:40:14.545Z,3.07
2022-11-13T07:41:17.023Z,2.81
2022-11-13T07:42:19.385Z,5.42
2022-11-13T07:43:21.922Z,1.83
2022-11-13T07:44:47.861Z,1.72
2022-11-13T07:45:28.967Z,1.67
2022-11-13T07:46:32.125Z,2.58
2022-11-13T07:47:34.476Z,3.91
2022-11-13T07:48:36.838Z,3.52
2022-11-13T07:49:39.203Z,2.95
2022-11-13T07:50:41.769Z,3.91
2022-11-13T07:51:44.271Z,4.34
2022-11-13T07:52:46.735Z,2.82
2022-11-13T07:53:49.090Z,4.07
2022-11-13T07:54:51.517Z,2.62
2022-11-13T07:55:53.943Z,1.90
2022-11-13T07:56:56.680Z,1.97
2022-11-13T07:57:59.136Z,2.07
2022-11-13T07:59:01.540Z,3.29
2022-11-13T08:00:04.202Z,3.37
2022-11-13T08:01:06.694Z,2.17
2022-11-13T08:02:09.297Z,2.07
2022-11-13T08:03:12.254Z,3.06
2022-11-13T08:04:14.614Z,3.61
2022-11-13T08:05:17.298Z,9.85
2022-11-13T08:06:20.274Z,3.76
2022-11-13T08:07:22.733Z,2.87
2022-11-13T08:08:25.351Z,3.30
2022-11-13T08:09:27.894Z,3.20
2022-11-13T08:10:30.554Z,5.96
2022-11-13T08:11:33.007Z,7.22
2022-11-13T08:12:35.484Z,2.25
2022-11-13T08:13:37.880Z,5.86
2022-11-13T08:15:13.206Z,4.98
2022-11-13T08:16:14.705Z,7.64
2022-11-13T08:17:17.225Z,5.36
2022-11-13T08:18:19.718Z,10.32
2022-11-13T08:19:22.185Z,13.46
2022-11-13T08:20:24.763Z,11.38
2022-11-13T08:21:27.123Z,9.63
2022-11-13T08:22:29.635Z,10.08
2022-11-13T08:23:32.589Z,6.35
2022-11-13T08:24:35.052Z,4.62
2022-11-13T08:25:37.515Z,5.47
2022-11-13T08:26:40.073Z,4.06
2022-11-13T08:27:42.439Z,2.46
2022-11-13T08:28:44.846Z,2.82
2022-11-13T08:29:47.208Z,2.51
2022-11-13T08:30:49.878Z,1.69
2022-11-13T08:31:52.257Z,2.91
2022-11-13T08:32:54.727Z,4.21
2022-11-13T08:33:57.167Z,6.25
2022-11-13T08:34:59.641Z,3.24
2022-11-13T08:36:02.001Z,2.77
2022-11-13T08:37:04.467Z,2.24
2022-11-13T08:38:07.339Z,4.40
2022-11-13T08:39:09.847Z,2.35
2022-11-13T08:40:12.409Z,1.79
2022-11-13T08:41:14.876Z,2.98
2022-11-13T08:42:17.732Z,3.82
2022-11-13T08:43:20.190Z,2.44
2022-11-13T08:44:22.583Z,2.63
2022-11-13T08:45:24.958Z,16.07
2022-11-13T08:46:27.729Z,2.94
2022-11-13T08:47:30.101Z,4.09
2022-11-13T08:48:32.621Z,4.13
2022-11-13T08:49:35.129Z,3.55
2022-11-13T08:50:37.835Z,3.08
2022-11-13T08:51:40.340Z,2.87
2022-11-13T08:52:42.734Z,8.65
2022-11-13T08:53:45.180Z,6.42
2022-11-13T08:54:47.674Z,4.11
2022-11-13T08:55:50.067Z,2.99
2022-11-13T08:56:56.139Z,3.79
2022-11-13T08:57:57.230Z,2.99
2022-11-13T08:58:59.786Z,4.44
2022-11-13T09:00:02.508Z,2.44
2022-11-13T09:01:04.947Z,3.57
2022-11-13T09:02:07.409Z,4.77
2022-11-13T09:03:09.883Z,4.20
2022-11-13T09:04:12.398Z,1.30
2022-11-13T09:05:14.847Z,2.57
2022-11-13T09:06:17.916Z,5.31
2022-11-13T09:07:24.684Z,5.05
2022-11-13T09:08:24.720Z,5.25
2022-11-13T09:09:27.158Z,4.05
2022-11-13T09:10:30.259Z,2.63
2022-11-13T09:11:32.756Z,3.09
2022-11-13T09:12:35.217Z,2.56
2022-11-13T09:13:43.905Z,4.08
2022-11-13T09:14:41.875Z,4.36
2022-11-13T09:15:44.275Z,1.93
2022-11-13T09:16:47.052Z,2.54
2022-11-13T09:17:49.514Z,5.69
2022-11-13T09:18:52.003Z,2.36
2022-11-13T09:19:54.468Z,2.09
2022-11-13T09:20:57.156Z,7.93
2022-11-13T09:21:59.614Z,3.87
2022-11-13T09:23:01.983Z,6.55
2022-11-13T09:24:04.446Z,2.62
2022-11-13T09:25:06.908Z,2.58
2022-11-13T09:26:09.865Z,2.92
2022-11-13T09:27:12.382Z,4.04
2022-11-13T09:28:14.863Z,3.77
2022-11-13T09:29:17.331Z,5.41
2022-11-13T09:30:19.908Z,3.91
2022-11-13T09:31:22.432Z,4.25
2022-11-13T09:32:24.797Z,7.50
2022-11-13T09:33:27.184Z,3.07
2022-11-13T09:34:29.647Z,2.43
2022-11-13T09:35:32.103Z,4.46
2022-11-13T09:36:34.723Z,7.39
2022-11-13T09:37:37.086Z,8.07
2022-11-13T09:38:39.583Z,9.31
2022-11-13T09:39:42.042Z,9.28
2022-11-13T09:40:45.372Z,8.47
2022-11-13T09:41:48.378Z,6.41
2022-11-13T09:42:50.898Z,5.83
2022-11-13T09:43:59.329Z,6.73
2022-11-13T09:44:57.626Z,11.01
2022-11-13T09:46:00.090Z,4.61
2022-11-13T09:47:02.631Z,4.98
2022-11-13T09:48:04.997Z,3.67
2022-11-13T09:49:07.866Z,5.01
2022-11-13T09:50:11.855Z,4.22
2022-11-13T09:51:14.235Z,6.69
2022-11-13T09:52:16.869Z,4.99
2022-11-13T09:53:19.231Z,8.59
2022-11-13T09:54:21.608Z,4.97
2022-11-13T09:55:24.074Z,5.37
2022-11-13T09:56:26.640Z,3.34
2022-11-13T09:57:29.147Z,3.05
2022-11-13T09:58:31.952Z,6.07
2022-11-13T09:59:34.677Z,4.36
2022-11-13T10:00:37.245Z,8.45
2022-11-13T10:01:40.320Z,6.12
2022-11-13T10:02:42.853Z,3.79
2022-11-13T10:04:00.608Z,6.49
2022-11-13T10:04:49.607Z,2.46
2022-11-13T10:05:51.970Z,3.11
2022-11-13T10:06:54.589Z,4.80
2022-11-13T10:07:57.257Z,6.68
2022-11-13T10:08:59.712Z,6.47
2022-11-13T10:10:02.093Z,5.73
2022-11-13T10:11:04.570Z,7.09
2022-11-13T10:12:07.033Z,7.47
2022-11-13T10:13:09.453Z,4.57
2022-11-13T10:14:12.709Z,6.33
2022-11-13T10:15:15.225Z,6.10
2022-11-13T10:16:18.317Z,9.50
2022-11-13T10:17:20.678Z,7.55
2022-11-13T10:18:23.204Z,11.07
2022-11-13T10:19:25.704Z,11.17
2022-11-13T10:20:28.351Z,9.87
2022-11-13T10:21:30.787Z,5.60
2022-11-13T10:22:34.400Z,5.01
2022-11-13T10:23:37.304Z,3.11
2022-11-13T10:24:39.788Z,6.85
2022-11-13T10:25:42.258Z,6.59
2022-11-13T10:26:45.319Z,2.44
2022-11-13T10:27:47.938Z,3.35
2022-11-13T10:28:51.640Z,4.01
2022-11-13T10:29:54.486Z,2.86
2022-11-13T10:30:57.158Z,4.47
2022-11-13T10:31:59.709Z,3.66
2022-11-13T10:33:04.142Z,6.09
2022-11-13T10:34:06.512Z,5.39
2022-11-13T10:35:09.049Z,5.32
2022-11-13T10:36:11.746Z,6.65
2022-11-13T10:37:14.234Z,4.11
2022-11-13T10:38:17.857Z,5.16
2022-11-13T10:39:20.400Z,3.47
2022-11-13T10:40:22.994Z,5.57
2022-11-13T10:41:25.492Z,4.63
2022-11-13T10:42:27.953Z,3.55
2022-11-13T10:43:30.717Z,5.59
2022-11-13T10:44:33.480Z,3.09
2022-11-13T10:45:35.936Z,6.21
2022-11-13T10:46:38.411Z,3.71
2022-11-13T10:48:03.239Z,8.29
2022-11-13T10:48:45.190Z,4.54
2022-11-13T10:49:47.857Z,7.23
2022-11-13T10:50:50.651Z,9.39
2022-11-13T10:51:53.138Z,14.79
2022-11-13T10:52:55.583Z,9.33
2022-11-13T10:53:57.929Z,13.46
2022-11-13T10:55:00.410Z,7.98
2022-11-13T10:56:02.757Z,7.64
2022-11-13T10:57:05.119Z,10.38
2022-11-13T10:58:07.580Z,8.66
2022-11-13T10:59:10.040Z,7.74
2022-11-13T11:00:13.422Z,5.01
2022-11-13T11:01:15.831Z,6.91
2022-11-13T11:02:18.445Z,2.64
2022-11-13T11:03:20.809Z,3.39
2022-11-13T11:04:23.270Z,3.43
2022-11-13T11:05:25.665Z,3.95
2022-11-13T11:06:48.720Z,5.04
2022-11-13T11:07:32.555Z,8.39
2022-11-13T11:08:34.981Z,6.13
2022-11-13T11:09:37.345Z,4.52
2022-11-13T11:10:39.842Z,5.34
2022-11-13T11:11:42.300Z,6.37
2022-11-13T11:12:44.660Z,7.05
2022-11-13T11:13:47.018Z,10.61
2022-11-13T11:14:49.588Z,5.89
2022-11-13T11:15:52.079Z,6.54
2022-11-13T11:16:54.636Z,7.44
2022-11-13T11:17:56.993Z,6.91
2022-11-13T11:18:59.344Z,9.01
2022-11-13T11:20:01.702Z,7.85
2022-11-13T11:21:04.127Z,7.51
2022-11-13T11:22:06.494Z,4.78
2022-11-13T11:23:08.947Z,7.97
2022-11-13T11:24:11.302Z,2.05
2022-11-13T11:25:13.671Z,2.73
2022-11-13T11:26:16.179Z,1.93
2022-11-13T11:27:18.539Z,2.19
2022-11-13T11:28:20.905Z,5.41
2022-11-13T11:29:23.368Z,6.41
2022-11-13T11:30:25.934Z,6.01
2022-11-13T11:31:28.360Z,3.75
2022-11-13T11:32:30.821Z,7.47
2022-11-13T11:33:33.274Z,6.83
2022-11-13T11:34:35.631Z,10.00
2022-11-13T11:35:38.091Z,10.50
2022-11-13T11:36:40.688Z,6.19
2022-11-13T11:37:43.056Z,5.13
2022-11-13T11:38:45.521Z,3.45
2022-11-13T11:39:47.974Z,4.05
2022-11-13T11:40:50.439Z,10.49
2022-11-13T11:41:52.842Z,5.47
2022-11-13T11:42:55.209Z,5.16
2022-11-13T11:43:57.663Z,2.41
2022-11-13T11:45:00.170Z,5.49
2022-11-13T11:46:02.934Z,3.81
2022-11-13T11:47:05.434Z,4.49
2022-11-13T11:48:07.888Z,9.45
2022-11-13T11:49:10.251Z,7.74
2022-11-13T11:50:13.933Z,9.19
2022-11-13T11:51:16.392Z,4.92
2022-11-13T11:52:18.781Z,6.42
2022-11-13T11:53:21.232Z,5.95
2022-11-13T11:54:23.595Z,3.99
2022-11-13T11:55:26.055Z,5.77
2022-11-13T11:56:28.612Z,6.08
2022-11-13T11:57:31.108Z,11.65
2022-11-13T11:58:33.467Z,7.01
2022-11-13T11:59:35.966Z,5.25
2022-11-13T12:00:38.735Z,7.62
2022-11-13T12:01:41.095Z,5.47
2022-11-13T12:02:43.498Z,3.76
2022-11-13T12:03:45.948Z,10.82
2022-11-13T12:04:48.332Z,4.49
2022-11-13T12:05:50.758Z,15.57
2022-11-13T12:06:53.546Z,5.02
2022-11-13T12:07:56.014Z,3.99
2022-11-13T12:08:58.400Z,5.05
2022-11-13T12:10:00.759Z,4.29
2022-11-13T12:11:03.114Z,4.86
2022-11-13T12:12:05.476Z,8.37
2022-11-13T12:13:07.898Z,7.68
2022-11-13T12:14:10.257Z,4.99
2022-11-13T12:15:12.623Z,2.88
2022-11-13T12:16:15.377Z,2.94
2022-11-13T12:17:17.738Z,6.73
2022-11-13T12:18:20.144Z,2.12
2022-11-13T12:19:22.600Z,3.32
2022-11-13T12:20:25.154Z,2.04
2022-11-13T12:21:27.515Z,2.83
2022-11-13T12:22:31.119Z,4.56
2022-11-13T12:23:33.794Z,3.22
2022-11-13T12:24:36.435Z,4.88
2022-11-13T12:25:38.853Z,2.98
2022-11-13T12:26:41.412Z,3.99
2022-11-13T12:27:43.945Z,4.09
2022-11-13T12:28:46.415Z,5.73
2022-11-13T12:29:48.769Z,2.91
2022-11-13T12:30:51.228Z,7.64
2022-11-13T12:31:53.590Z,5.61
2022-11-13T12:32:56.067Z,5.25
2022-11-13T12:34:01.433Z,2.31
2022-11-13T12:35:02.728Z,2.26
2022-11-13T12:36:05.511Z,4.37
2022-11-13T12:37:07.964Z,1.63
2022-11-13T12:38:10.423Z,5.58
2022-11-13T12:39:12.808Z,4.45
2022-11-13T12:40:15.292Z,12.30
2022-11-13T12:41:17.694Z,9.07
2022-11-13T12:42:20.191Z,6.98
2022-11-13T12:43:22.662Z,4.25
2022-11-13T12:44:25.195Z,4.49
2022-11-13T12:45:27.623Z,2.30
2022-11-13T12:46:30.281Z,5.41
2022-11-13T12:47:32.757Z,4.52
2022-11-13T12:48:35.219Z,3.57
2022-11-13T12:49:37.778Z,3.36
2022-11-13T12:50:40.339Z,3.54
2022-11-13T12:51:42.832Z,5.92
2022-11-13T12:52:45.190Z,4.87
2022-11-13T12:53:47.656Z,15.67
2022-11-13T12:54:50.080Z,4.95
2022-11-13T12:55:52.564Z,6.43
2022-11-13T12:56:55.120Z,7.13
2022-11-13T12:57:57.592Z,8.15
2022-11-13T12:59:24.225Z,9.77
2022-11-13T13:00:04.568Z,6.19
2022-11-13T13:01:06.948Z,5.69
2022-11-13T13:02:09.397Z,4.82
2022-11-13T13:03:11.759Z,5.37
2022-11-13T13:04:14.222Z,7.63
2022-11-13T13:05:16.628Z,6.87
2022-11-13T13:06:19.835Z,9.91
2022-11-13T13:07:22.414Z,10.65
2022-11-13T13:08:24.901Z,7.35
2022-11-13T13:09:27.329Z,4.76
2022-11-13T13:10:29.920Z,6.25
2022-11-13T13:11:32.319Z,16.48
2022-11-13T13:12:34.699Z,21.17
2022-11-13T13:13:37.192Z,16.27
2022-11-13T13:14:39.652Z,61.99
2022-11-13T13:15:42.308Z,34.11
2022-11-13T13:16:44.935Z,23.32
2022-11-13T13:17:47.401Z,16.45
2022-11-13T13:18:49.888Z,13.21
2022-11-13T13:19:52.351Z,10.87
2022-11-13T13:20:55.068Z,17.81
2022-11-13T13:21:57.531Z,15.89
2022-11-13T13:22:59.990Z,21.73
2022-11-13T13:24:02.355Z,12.05
2022-11-13T13:25:04.820Z,11.33
2022-11-13T13:26:07.850Z,23.89
2022-11-13T13:27:10.309Z,16.18
2022-11-13T13:28:12.781Z,15.14
2022-11-13T13:29:15.249Z,7.72
2022-11-13T13:30:17.815Z,10.78
2022-11-13T13:31:20.323Z,11.43
2022-11-13T13:32:22.698Z,13.73
2022-11-13T13:33:25.191Z,15.31
2022-11-13T13:34:32.350Z,14.93
2022-11-13T13:35:31.845Z,15.24
2022-11-13T13:36:34.582Z,14.28
2022-11-13T13:37:37.048Z,15.05
2022-11-13T13:38:39.415Z,15.43
2022-11-13T13:39:41.875Z,11.69
2022-11-13T13:40:44.558Z,8.83
2022-11-13T13:41:47.060Z,13.33
2022-11-13T13:42:49.531Z,14.75
2022-11-13T13:43:51.996Z,23.67
2022-11-13T13:44:54.358Z,25.69
2022-11-13T13:45:56.821Z,23.29
2022-11-13T13:46:59.462Z,55.27
2022-11-13T13:48:01.830Z,40.47
2022-11-13T13:49:04.318Z,20.38
2022-11-13T13:50:07.327Z,21.29
2022-11-13T13:51:09.791Z,13.21
2022-11-13T13:52:12.314Z,10.00